createdAt,value
2018-11-27T00:00:04.448Z,0.00
2018-11-27T00:01:04.478Z,0.00
2018-11-27T00:02:04.498Z,0.00
2018-11-27T00:03:04.533Z,0.00
2018-11-27T00:04:04.550Z,0.00
2018-11-27T00:05:04.583Z,0.00
2018-11-27T00:06:04.603Z,0.00
2018-11-27T00:07:04.629Z,0.00
2018-11-27T00:08:04.655Z,0.00
2018-11-27T00:09:04.681Z,0.00
2018-11-27T00:10:04.707Z,0.00
2018-11-27T00:11:04.733Z,0.00
2018-11-27T00:12:04.760Z,0.00
2018-11-27T00:13:04.786Z,0.00
2018-11-27T00:14:04.811Z,0.00
2018-11-27T00:15:04.838Z,0.00
2018-11-27T00:16:04.863Z,0.00
2018-11-27T00:17:04.891Z,0.00
2018-11-27T00:18:04.916Z,0.00
2018-11-27T00:19:04.942Z,0.00
2018-11-27T00:20:04.968Z,0.00
2018-11-27T00:21:04.993Z,0.00
2018-11-27T00:22:05.020Z,0.00
2018-11-27T00:23:05.046Z,0.00
2018-11-27T00:24:05.071Z,0.00
2018-11-27T00:25:05.101Z,0.00
2018-11-27T00:26:05.126Z,0.00
2018-11-27T00:27:05.150Z,0.00
2018-11-27T00:28:05.181Z,0.00
2018-11-27T00:29:05.203Z,0.00
2018-11-27T00:30:05.230Z,0.00
2018-11-27T00:31:05.254Z,0.00
2018-11-27T00:32:05.279Z,0.00
2018-11-27T00:33:05.305Z,0.00
2018-11-27T00:34:05.352Z,0.00
2018-11-27T00:35:05.358Z,0.00
2018-11-27T00:36:05.383Z,0.00
2018-11-27T00:37:05.409Z,0.00
2018-11-27T00:38:05.437Z,0.00
2018-11-27T00:39:05.465Z,0.00
2018-11-27T00:40:05.493Z,0.00
2018-11-27T00:41:05.512Z,0.00
2018-11-27T00:42:05.538Z,0.00
2018-11-27T00:43:05.564Z,0.00
2018-11-27T00:44:05.590Z,0.00
2018-11-27T00:45:05.617Z,0.00
2018-11-27T00:46:05.644Z,0.00
2018-11-27T00:47:05.670Z,0.00
2018-11-27T00:48:05.693Z,0.00
2018-11-27T00:49:05.719Z,0.00
2018-11-27T00:50:05.746Z,0.00
2018-11-27T00:51:05.771Z,0.00
2018-11-27T00:52:05.799Z,0.00
2018-11-27T00:53:05.822Z,0.00
2018-11-27T00:54:05.848Z,0.00
2018-11-27T00:55:05.873Z,0.00
2018-11-27T00:56:05.901Z,0.00
2018-11-27T00:57:05.926Z,0.00
2018-11-27T00:58:05.953Z,0.00
2018-11-27T00:59:05.979Z,0.00
2018-11-27T01:00:06.004Z,0.00
2018-11-27T01:01:06.029Z,0.00
2018-11-27T01:02:06.059Z,0.00
2018-11-27T01:03:06.081Z,0.00
2018-11-27T01:04:06.105Z,0.00
2018-11-27T01:05:06.131Z,0.00
2018-11-27T01:06:06.158Z,0.00
2018-11-27T01:07:06.184Z,0.00
2018-11-27T01:08:06.209Z,0.00
2018-11-27T01:09:06.235Z,0.00
2018-11-27T01:10:06.260Z,0.00
2018-11-27T01:11:06.287Z,0.00
2018-11-27T01:12:06.313Z,0.00
2018-11-27T01:13:06.338Z,0.00
2018-11-27T01:14:06.365Z,0.00
2018-11-27T01:15:06.390Z,0.00
2018-11-27T01:16:06.416Z,0.00
2018-11-27T01:17:06.440Z,0.00
2018-11-27T01:18:06.471Z,0.00
2018-11-27T01:19:06.493Z,0.00
2018-11-27T01:20:06.521Z,0.00
2018-11-27T01:21:06.543Z,0.00
2018-11-27T01:22:06.568Z,0.00
2018-11-27T01:23:06.597Z,0.00
2018-11-27T01:24:06.620Z,0.00
2018-11-27T01:25:06.645Z,0.00
2018-11-27T01:26:06.674Z,0.00
2018-11-27T01:27:06.696Z,0.00
2018-11-27T01:28:06.725Z,0.00
2018-11-27T01:29:06.750Z,0.00
2018-11-27T01:30:06.773Z,0.00
2018-11-27T01:31:06.801Z,0.00
2018-11-27T01:32:06.826Z,0.00
2018-11-27T01:33:06.851Z,0.00
2018-11-27T01:34:06.877Z,0.00
2018-11-27T01:35:06.902Z,0.00
2018-11-27T01:36:06.930Z,0.00
2018-11-27T01:37:06.951Z,0.00
2018-11-27T01:38:06.977Z,0.00
2018-11-27T01:39:07.006Z,0.00
2018-11-27T01:40:07.030Z,0.00
2018-11-27T01:41:07.054Z,0.00
2018-11-27T01:42:07.082Z,0.00
2018-11-27T01:43:07.107Z,0.00
2018-11-27T01:44:07.133Z,0.00
2018-11-27T01:45:07.208Z,0.00
2018-11-27T01:46:07.182Z,0.00
2018-11-27T01:47:07.210Z,0.00
2018-11-27T01:48:07.303Z,0.00
2018-11-27T01:49:07.259Z,0.00
2018-11-27T01:50:07.285Z,0.00
2018-11-27T01:51:07.311Z,0.00
2018-11-27T01:52:07.336Z,0.00
2018-11-27T01:53:07.362Z,0.00
2018-11-27T01:54:07.388Z,0.00
2018-11-27T01:55:07.416Z,0.00
2018-11-27T01:56:07.439Z,0.00
2018-11-27T01:57:07.464Z,0.00
2018-11-27T01:58:07.488Z,0.00
2018-11-27T01:59:07.516Z,0.00
2018-11-27T02:00:07.543Z,0.00
2018-11-27T02:01:07.566Z,0.00
2018-11-27T02:02:07.592Z,0.00
2018-11-27T02:03:07.618Z,0.00
2018-11-27T02:04:07.642Z,0.00
2018-11-27T02:05:07.667Z,0.00
2018-11-27T02:06:07.692Z,0.00
2018-11-27T02:07:07.723Z,0.00
2018-11-27T02:08:07.744Z,0.00
2018-11-27T02:09:07.771Z,0.00
2018-11-27T02:10:07.794Z,0.00
2018-11-27T02:11:07.821Z,0.00
2018-11-27T02:12:07.847Z,0.00
2018-11-27T02:13:07.871Z,0.00
2018-11-27T02:14:07.896Z,0.00
2018-11-27T02:15:07.923Z,0.00
2018-11-27T02:16:07.949Z,0.00
2018-11-27T02:17:07.974Z,0.00
2018-11-27T02:18:07.998Z,0.00
2018-11-27T02:19:08.025Z,0.00
2018-11-27T02:20:08.050Z,0.00
2018-11-27T02:21:08.075Z,0.00
2018-11-27T02:22:08.101Z,0.00
2018-11-27T02:23:08.125Z,0.00
2018-11-27T02:24:08.150Z,0.00
2018-11-27T02:25:08.178Z,0.00
2018-11-27T02:26:08.205Z,0.00
2018-11-27T02:27:08.228Z,0.00
2018-11-27T02:28:08.253Z,0.00
2018-11-27T02:29:08.278Z,0.00
2018-11-27T02:30:08.305Z,0.00
2018-11-27T02:31:08.329Z,0.00
2018-11-27T02:32:08.354Z,0.00
2018-11-27T02:33:08.380Z,0.00
2018-11-27T02:34:08.406Z,0.00
2018-11-27T02:35:08.431Z,0.00
2018-11-27T02:36:08.456Z,0.00
2018-11-27T02:37:08.481Z,0.00
2018-11-27T02:38:08.506Z,0.00
2018-11-27T02:39:08.537Z,0.00
2018-11-27T02:40:08.556Z,0.00
2018-11-27T02:41:08.583Z,0.00
2018-11-27T02:42:08.609Z,0.00
2018-11-27T02:43:08.633Z,0.00
2018-11-27T02:44:08.657Z,0.00
2018-11-27T02:45:08.684Z,0.00
2018-11-27T02:46:08.712Z,0.00
2018-11-27T02:47:08.735Z,0.00
2018-11-27T02:48:08.758Z,0.00
2018-11-27T02:49:08.784Z,0.00
2018-11-27T02:50:08.809Z,0.00
2018-11-27T02:51:08.838Z,0.00
2018-11-27T02:52:08.861Z,0.00
2018-11-27T02:53:08.897Z,0.00
2018-11-27T02:54:08.911Z,0.00
2018-11-27T02:55:08.937Z,0.00
2018-11-27T02:56:08.963Z,0.00
2018-11-27T02:57:08.987Z,0.00
2018-11-27T02:58:09.011Z,0.00
2018-11-27T02:59:09.038Z,0.00
2018-11-27T03:00:09.063Z,0.00
2018-11-27T03:01:09.087Z,0.00
2018-11-27T03:02:09.115Z,0.00
2018-11-27T03:03:09.139Z,0.00
2018-11-27T03:04:09.167Z,0.00
2018-11-27T03:05:09.189Z,0.00
2018-11-27T03:06:09.213Z,0.00
2018-11-27T03:07:09.240Z,0.00
2018-11-27T03:08:09.269Z,0.00
2018-11-27T03:09:09.290Z,0.00
2018-11-27T03:10:09.315Z,0.00
2018-11-27T03:11:09.342Z,0.00
2018-11-27T03:12:09.365Z,0.00
2018-11-27T03:13:09.393Z,0.00
2018-11-27T03:14:09.418Z,0.00
2018-11-27T03:15:09.442Z,0.00
2018-11-27T03:16:09.465Z,0.00
2018-11-27T03:17:09.494Z,0.00
2018-11-27T03:18:09.519Z,0.00
2018-11-27T03:19:09.544Z,0.00
2018-11-27T03:20:09.568Z,0.00
2018-11-27T03:21:09.592Z,0.00
2018-11-27T03:22:09.619Z,0.00
2018-11-27T03:23:09.645Z,0.00
2018-11-27T03:24:09.668Z,0.00
2018-11-27T03:25:09.694Z,0.00
2018-11-27T03:26:09.721Z,0.00
2018-11-27T03:27:09.745Z,0.00
2018-11-27T03:28:09.769Z,0.00
2018-11-27T03:29:09.795Z,0.00
2018-11-27T03:30:09.821Z,0.00
2018-11-27T03:31:09.847Z,0.00
2018-11-27T03:32:09.900Z,0.00
2018-11-27T03:33:09.898Z,0.00
2018-11-27T03:34:09.923Z,0.00
2018-11-27T03:35:09.947Z,0.00
2018-11-27T03:36:09.971Z,0.00
2018-11-27T03:37:10.002Z,0.00
2018-11-27T03:38:10.028Z,0.00
2018-11-27T03:39:10.048Z,0.00
2018-11-27T03:40:10.073Z,0.00
2018-11-27T03:41:10.103Z,0.00
2018-11-27T03:42:10.126Z,0.00
2018-11-27T03:43:10.150Z,0.00
2018-11-27T03:44:10.174Z,0.00
2018-11-27T03:45:10.200Z,0.00
2018-11-27T03:46:10.224Z,0.00
2018-11-27T03:47:10.249Z,0.00
2018-11-27T03:48:10.273Z,0.00
2018-11-27T03:49:10.302Z,0.00
2018-11-27T03:50:10.326Z,0.00
2018-11-27T03:51:10.351Z,0.00
2018-11-27T03:52:10.375Z,0.00
2018-11-27T03:53:10.401Z,0.00
2018-11-27T03:54:10.425Z,0.00
2018-11-27T03:55:10.451Z,0.00
2018-11-27T03:56:10.478Z,0.00
2018-11-27T03:57:10.505Z,0.00
2018-11-27T03:58:10.527Z,0.00
2018-11-27T03:59:10.553Z,0.00
2018-11-27T04:00:10.585Z,0.00
2018-11-27T04:01:10.601Z,0.00
2018-11-27T04:02:10.627Z,0.00
2018-11-27T04:03:10.662Z,0.00
2018-11-27T04:04:10.679Z,0.00
2018-11-27T04:05:10.704Z,0.00
2018-11-27T04:06:10.741Z,0.00
2018-11-27T04:07:10.755Z,0.00
2018-11-27T04:08:10.780Z,0.00
2018-11-27T04:09:10.804Z,0.00
2018-11-27T04:10:10.829Z,0.00
2018-11-27T04:11:10.856Z,0.00
2018-11-27T04:12:10.879Z,0.00
2018-11-27T04:13:10.906Z,0.00
2018-11-27T04:14:10.930Z,0.00
2018-11-27T04:15:10.958Z,0.00
2018-11-27T04:16:10.980Z,0.00
2018-11-27T04:17:11.006Z,0.00
2018-11-27T04:18:11.036Z,0.00
2018-11-27T04:19:11.057Z,0.00
2018-11-27T04:20:11.091Z,0.00
2018-11-27T04:21:11.107Z,0.00
2018-11-27T04:22:11.131Z,0.00
2018-11-27T04:23:11.157Z,0.00
2018-11-27T04:24:11.183Z,0.00
2018-11-27T04:25:11.217Z,0.00
2018-11-27T04:26:11.384Z,0.00
2018-11-27T04:27:11.271Z,0.00
2018-11-27T04:28:11.286Z,0.00
2018-11-27T04:29:11.309Z,0.00
2018-11-27T04:30:11.334Z,0.00
2018-11-27T04:31:11.363Z,0.00
2018-11-27T04:32:11.384Z,0.00
2018-11-27T04:33:11.408Z,0.00
2018-11-27T04:34:11.432Z,0.00
2018-11-27T04:35:11.459Z,0.00
2018-11-27T04:36:11.484Z,0.00
2018-11-27T04:37:11.509Z,0.00
2018-11-27T04:38:11.537Z,0.00
2018-11-27T04:39:11.559Z,0.00
2018-11-27T04:40:11.584Z,0.00
2018-11-27T04:41:11.609Z,0.00
2018-11-27T04:42:11.635Z,0.00
2018-11-27T04:43:11.660Z,0.00
2018-11-27T04:44:11.691Z,0.00
2018-11-27T04:45:11.709Z,0.00
2018-11-27T04:46:11.734Z,0.00
2018-11-27T04:47:11.766Z,0.00
2018-11-27T04:48:11.783Z,0.00
2018-11-27T04:49:11.809Z,0.00
2018-11-27T04:50:11.857Z,0.00
2018-11-27T04:51:11.860Z,0.00
2018-11-27T04:52:11.887Z,0.00
2018-11-27T04:53:11.909Z,0.00
2018-11-27T04:54:11.936Z,0.00
2018-11-27T04:55:11.959Z,0.00
2018-11-27T04:56:11.989Z,0.00
2018-11-27T04:57:12.009Z,0.00
2018-11-27T04:58:12.035Z,0.00
2018-11-27T04:59:12.059Z,0.00
2018-11-27T05:00:12.088Z,0.00
2018-11-27T05:01:12.109Z,0.00
2018-11-27T05:02:12.135Z,0.00
2018-11-27T05:03:12.160Z,0.00
2018-11-27T05:04:12.184Z,0.00
2018-11-27T05:05:12.208Z,0.00
2018-11-27T05:06:12.235Z,0.00
2018-11-27T05:07:12.263Z,0.00
2018-11-27T05:08:12.283Z,0.00
2018-11-27T05:09:12.307Z,0.00
2018-11-27T05:10:12.331Z,0.00
2018-11-27T05:11:12.357Z,0.00
2018-11-27T05:12:12.382Z,0.00
2018-11-27T05:13:12.408Z,0.00
2018-11-27T05:14:12.432Z,0.00
2018-11-27T05:15:12.458Z,0.00
2018-11-27T05:16:12.481Z,0.00
2018-11-27T05:17:12.506Z,0.00
2018-11-27T05:18:12.535Z,0.00
2018-11-27T05:19:12.557Z,0.00
2018-11-27T05:20:12.582Z,0.00
2018-11-27T05:21:12.607Z,0.00
2018-11-27T05:22:12.635Z,0.00
2018-11-27T05:23:12.655Z,0.00
2018-11-27T05:24:12.686Z,0.00
2018-11-27T05:25:12.704Z,0.00
2018-11-27T05:26:12.733Z,0.00
2018-11-27T05:27:12.756Z,0.00
2018-11-27T05:28:12.779Z,0.00
2018-11-27T05:29:12.805Z,0.00
2018-11-27T05:30:12.829Z,0.00
2018-11-27T05:31:12.854Z,0.00
2018-11-27T05:32:12.879Z,0.00
2018-11-27T05:33:12.905Z,0.00
2018-11-27T05:34:12.929Z,0.00
2018-11-27T05:35:12.956Z,0.00
2018-11-27T05:36:12.978Z,0.00
2018-11-27T05:37:13.002Z,0.00
2018-11-27T05:38:13.029Z,0.00
2018-11-27T05:39:13.053Z,0.00
2018-11-27T05:40:13.077Z,0.00
2018-11-27T05:41:13.104Z,0.00
2018-11-27T05:42:13.128Z,0.00
2018-11-27T05:43:13.153Z,0.00
2018-11-27T05:44:13.178Z,0.00
2018-11-27T05:45:13.201Z,0.00
2018-11-27T05:46:13.228Z,0.00
2018-11-27T05:47:13.252Z,0.00
2018-11-27T05:48:13.278Z,0.00
2018-11-27T05:49:13.302Z,0.00
2018-11-27T05:50:13.326Z,0.00
2018-11-27T05:51:13.349Z,0.00
2018-11-27T05:52:13.376Z,0.00
2018-11-27T05:53:13.400Z,0.00
2018-11-27T05:54:13.424Z,0.00
2018-11-27T05:55:13.449Z,0.00
2018-11-27T05:56:13.474Z,0.00
2018-11-27T05:57:13.498Z,0.00
2018-11-27T05:58:13.526Z,0.00
2018-11-27T05:59:13.548Z,0.00
2018-11-27T06:00:13.572Z,0.00
2018-11-27T06:01:13.599Z,0.00
2018-11-27T06:02:13.625Z,0.00
2018-11-27T06:03:13.648Z,0.00
2018-11-27T06:04:13.672Z,0.00
2018-11-27T06:05:13.699Z,0.00
2018-11-27T06:06:13.721Z,0.00
2018-11-27T06:07:13.747Z,0.00
2018-11-27T06:08:13.771Z,0.00
2018-11-27T06:09:13.795Z,0.00
2018-11-27T06:10:13.820Z,0.00
2018-11-27T06:11:13.845Z,0.00
2018-11-27T06:12:13.869Z,0.00
2018-11-27T06:13:13.895Z,0.00
2018-11-27T06:14:13.920Z,0.00
2018-11-27T06:15:13.944Z,0.00
2018-11-27T06:16:13.971Z,0.00
2018-11-27T06:17:13.993Z,0.00
2018-11-27T06:18:14.019Z,0.00
2018-11-27T06:19:14.050Z,0.00
2018-11-27T06:20:14.105Z,0.00
2018-11-27T06:21:14.093Z,0.00
2018-11-27T06:22:14.117Z,0.00
2018-11-27T06:23:14.141Z,0.00
2018-11-27T06:24:14.164Z,0.00
2018-11-27T06:25:14.214Z,0.00
2018-11-27T06:26:14.219Z,4.00
2018-11-27T06:27:14.241Z,4.00
2018-11-27T06:28:14.266Z,4.00
2018-11-27T06:29:14.290Z,0.00
2018-11-27T06:30:14.313Z,0.00
2018-11-27T06:31:14.338Z,4.00
2018-11-27T06:32:14.363Z,4.00
2018-11-27T06:33:14.408Z,4.00
2018-11-27T06:34:14.413Z,8.00
2018-11-27T06:35:14.438Z,4.00
2018-11-27T06:36:14.461Z,4.00
2018-11-27T06:37:14.488Z,8.00
2018-11-27T06:38:14.512Z,4.00
2018-11-27T06:39:14.537Z,8.00
2018-11-27T06:40:14.561Z,8.00
2018-11-27T06:41:14.588Z,12.00
2018-11-27T06:42:14.611Z,8.00
2018-11-27T06:43:14.635Z,12.00
2018-11-27T06:44:14.659Z,12.00
2018-11-27T06:45:14.684Z,12.00
2018-11-27T06:46:14.710Z,12.00
2018-11-27T06:47:14.735Z,16.00
2018-11-27T06:48:14.759Z,16.00
2018-11-27T06:49:14.787Z,20.00
2018-11-27T06:50:14.807Z,16.00
2018-11-27T06:51:14.833Z,16.00
2018-11-27T06:52:14.857Z,20.00
2018-11-27T06:53:14.885Z,20.00
2018-11-27T06:54:14.906Z,24.00
2018-11-27T06:55:14.933Z,24.00
2018-11-27T06:56:14.957Z,24.00
2018-11-27T06:57:14.981Z,28.00
2018-11-27T06:58:15.006Z,28.00
2018-11-27T06:59:15.031Z,32.00
2018-11-27T07:00:15.058Z,32.00
2018-11-27T07:01:15.079Z,40.00
2018-11-27T07:02:15.104Z,36.00
2018-11-27T07:03:15.129Z,44.00
2018-11-27T07:04:15.154Z,44.00
2018-11-27T07:05:15.179Z,48.00
2018-11-27T07:06:15.207Z,48.00
2018-11-27T07:07:15.230Z,52.00
2018-11-27T07:08:15.252Z,56.00
2018-11-27T07:09:15.277Z,60.00
2018-11-27T07:10:15.302Z,60.00
2018-11-27T07:11:15.327Z,68.00
2018-11-27T07:12:15.351Z,72.00
2018-11-27T07:13:15.380Z,76.00
2018-11-27T07:14:15.402Z,80.00
2018-11-27T07:15:15.429Z,88.00
2018-11-27T07:16:15.452Z,92.00
2018-11-27T07:17:15.475Z,96.00
2018-11-27T07:18:15.501Z,100.00
2018-11-27T07:19:15.529Z,108.00
2018-11-27T07:20:15.550Z,116.00
2018-11-27T07:21:15.576Z,124.00
2018-11-27T07:22:15.601Z,136.00
2018-11-27T07:23:15.625Z,136.00
2018-11-27T07:24:15.650Z,140.00
2018-11-27T07:25:15.677Z,148.00
2018-11-27T07:26:15.700Z,156.00
2018-11-27T07:27:15.725Z,168.00
2018-11-27T07:28:15.749Z,176.00
2018-11-27T07:29:15.774Z,188.00
2018-11-27T07:30:15.801Z,192.00
2018-11-27T07:31:15.823Z,204.00
2018-11-27T07:32:15.849Z,212.00
2018-11-27T07:33:15.874Z,216.00
2018-11-27T07:34:15.899Z,220.00
2018-11-27T07:35:15.924Z,228.00
2018-11-27T07:36:15.952Z,232.00
2018-11-27T07:37:15.972Z,240.00
2018-11-27T07:38:16.001Z,252.00
2018-11-27T07:39:16.023Z,264.00
2018-11-27T07:40:16.058Z,272.00
2018-11-27T07:41:16.074Z,284.00
2018-11-27T07:42:16.099Z,296.00
2018-11-27T07:43:16.123Z,304.00
2018-11-27T07:44:16.147Z,312.00
2018-11-27T07:45:16.173Z,316.00
2018-11-27T07:46:16.199Z,328.00
2018-11-27T07:47:16.224Z,324.00
2018-11-27T07:48:16.248Z,328.00
2018-11-27T07:49:16.275Z,336.00
2018-11-27T07:50:16.302Z,344.00
2018-11-27T07:51:16.322Z,352.00
2018-11-27T07:52:16.349Z,372.00
2018-11-27T07:53:16.373Z,388.00
2018-11-27T07:54:16.397Z,404.00
2018-11-27T07:55:16.428Z,416.00
2018-11-27T07:56:16.450Z,428.00
2018-11-27T07:57:16.473Z,436.00
2018-11-27T07:58:16.502Z,452.00
2018-11-27T07:59:16.523Z,468.00
2018-11-27T08:00:16.552Z,488.00
2018-11-27T08:01:16.577Z,504.00
2018-11-27T08:02:16.599Z,516.00
2018-11-27T08:03:16.626Z,532.00
2018-11-27T08:04:16.649Z,544.00
2018-11-27T08:05:16.675Z,556.00
2018-11-27T08:06:16.701Z,568.00
2018-11-27T08:07:16.724Z,576.00
2018-11-27T08:08:16.748Z,588.00
2018-11-27T08:09:16.799Z,596.00
2018-11-27T08:10:16.799Z,608.00
2018-11-27T08:11:16.826Z,612.00
2018-11-27T08:12:16.850Z,616.00
2018-11-27T08:13:16.874Z,624.00
2018-11-27T08:14:16.900Z,636.00
2018-11-27T08:15:16.925Z,648.00
2018-11-27T08:16:16.950Z,656.00
2018-11-27T08:17:16.977Z,668.00
2018-11-27T08:18:17.003Z,680.00
2018-11-27T08:19:17.033Z,684.00
2018-11-27T08:20:17.051Z,692.00
2018-11-27T08:21:17.077Z,696.00
2018-11-27T08:22:17.102Z,704.00
2018-11-27T08:23:17.127Z,716.00
2018-11-27T08:24:17.152Z,704.00
2018-11-27T08:25:17.178Z,704.00
2018-11-27T08:26:17.203Z,712.00
2018-11-27T08:27:17.229Z,716.00
2018-11-27T08:28:17.254Z,712.00
2018-11-27T08:29:17.279Z,696.00
2018-11-27T08:30:17.304Z,664.00
2018-11-27T08:31:17.329Z,648.00
2018-11-27T08:32:17.354Z,652.00
2018-11-27T08:33:17.379Z,652.00
2018-11-27T08:34:17.404Z,668.00
2018-11-27T08:35:17.433Z,680.00
2018-11-27T08:36:17.458Z,692.00
2018-11-27T08:37:17.482Z,704.00
2018-11-27T08:38:17.507Z,768.00
2018-11-27T08:39:17.533Z,804.00
2018-11-27T08:40:17.557Z,812.00
2018-11-27T08:41:17.584Z,776.00
2018-11-27T08:42:17.608Z,708.00
2018-11-27T08:43:17.634Z,676.00
2018-11-27T08:44:17.660Z,656.00
2018-11-27T08:45:17.685Z,632.00
2018-11-27T08:46:17.710Z,600.00
2018-11-27T08:47:17.735Z,564.00
2018-11-27T08:48:17.760Z,524.00
2018-11-27T08:49:17.786Z,508.00
2018-11-27T08:50:17.813Z,496.00
2018-11-27T08:51:17.838Z,484.00
2018-11-27T08:52:17.862Z,468.00
2018-11-27T08:53:17.889Z,468.00
2018-11-27T08:54:17.915Z,484.00
2018-11-27T08:55:17.944Z,500.00
2018-11-27T08:56:17.965Z,500.00
2018-11-27T08:57:17.991Z,508.00
2018-11-27T08:58:18.017Z,508.00
2018-11-27T08:59:18.043Z,496.00
2018-11-27T09:00:18.066Z,480.00
2018-11-27T09:01:18.093Z,480.00
2018-11-27T09:02:18.119Z,488.00
2018-11-27T09:03:18.145Z,496.00
2018-11-27T09:04:18.169Z,488.00
2018-11-27T09:05:18.197Z,492.00
2018-11-27T09:06:18.224Z,496.00
2018-11-27T09:07:18.248Z,492.00
2018-11-27T09:08:18.273Z,488.00
2018-11-27T09:09:18.298Z,480.00
2018-11-27T09:10:18.329Z,464.00
2018-11-27T09:11:18.355Z,456.00
2018-11-27T09:12:18.375Z,456.00
2018-11-27T09:13:18.430Z,452.00
2018-11-27T09:14:18.429Z,444.00
2018-11-27T09:15:18.458Z,448.00
2018-11-27T09:16:18.479Z,456.00
2018-11-27T09:17:18.506Z,452.00
2018-11-27T09:18:18.535Z,436.00
2018-11-27T09:19:18.556Z,440.00
2018-11-27T09:20:18.582Z,440.00
2018-11-27T09:21:18.607Z,444.00
2018-11-27T09:22:18.633Z,448.00
2018-11-27T09:23:18.672Z,432.00
2018-11-27T09:24:18.685Z,420.00
2018-11-27T09:25:18.712Z,440.00
2018-11-27T09:26:18.738Z,440.00
2018-11-27T09:27:18.765Z,436.00
2018-11-27T09:28:18.799Z,428.00
2018-11-27T09:29:18.816Z,416.00
2018-11-27T09:30:18.840Z,396.00
2018-11-27T09:31:18.867Z,380.00
2018-11-27T09:32:18.893Z,368.00
2018-11-27T09:33:18.920Z,372.00
2018-11-27T09:34:18.945Z,384.00
2018-11-27T09:35:18.970Z,388.00
2018-11-27T09:36:18.997Z,392.00
2018-11-27T09:37:19.022Z,396.00
2018-11-27T09:38:19.047Z,400.00
2018-11-27T09:39:19.075Z,392.00
2018-11-27T09:40:19.100Z,388.00
2018-11-27T09:41:19.127Z,372.00
2018-11-27T09:42:19.153Z,372.00
2018-11-27T09:43:19.178Z,372.00
2018-11-27T09:44:19.205Z,380.00
2018-11-27T09:45:19.230Z,384.00
2018-11-27T09:46:19.256Z,380.00
2018-11-27T09:47:19.283Z,376.00
2018-11-27T09:48:19.309Z,372.00
2018-11-27T09:49:19.336Z,376.00
2018-11-27T09:50:19.367Z,376.00
2018-11-27T09:51:19.388Z,388.00
2018-11-27T09:52:19.414Z,400.00
2018-11-27T09:53:19.440Z,404.00
2018-11-27T09:54:19.465Z,400.00
2018-11-27T09:55:19.503Z,404.00
2018-11-27T09:56:19.517Z,400.00
2018-11-27T09:57:19.546Z,396.00
2018-11-27T09:58:19.571Z,400.00
2018-11-27T09:59:19.596Z,404.00
2018-11-27T10:00:19.622Z,408.00
2018-11-27T10:01:19.648Z,404.00
2018-11-27T10:02:19.678Z,400.00
2018-11-27T10:03:19.701Z,392.00
2018-11-27T10:04:19.728Z,384.00
2018-11-27T10:05:19.753Z,376.00
2018-11-27T10:06:19.779Z,368.00
2018-11-27T10:07:19.807Z,364.00
2018-11-27T10:08:19.834Z,368.00
2018-11-27T10:09:19.860Z,364.00
2018-11-27T10:10:19.888Z,356.00
2018-11-27T10:11:19.912Z,348.00
2018-11-27T10:12:19.937Z,348.00
2018-11-27T10:13:19.965Z,344.00
2018-11-27T10:14:19.993Z,340.00
2018-11-27T10:15:20.019Z,344.00
2018-11-27T10:16:20.044Z,340.00
2018-11-27T10:17:20.071Z,344.00
2018-11-27T10:18:20.099Z,340.00
2018-11-27T10:19:20.126Z,348.00
2018-11-27T10:20:20.150Z,352.00
2018-11-27T10:21:20.201Z,356.00
2018-11-27T10:22:20.203Z,352.00
2018-11-27T10:23:20.230Z,348.00
2018-11-27T10:24:20.255Z,348.00
2018-11-27T10:25:20.282Z,352.00
2018-11-27T10:26:20.308Z,352.00
2018-11-27T10:27:20.338Z,360.00
2018-11-27T10:28:20.361Z,368.00
2018-11-27T10:29:20.387Z,372.00
2018-11-27T10:30:20.415Z,372.00
2018-11-27T10:31:20.443Z,380.00
2018-11-27T10:32:20.469Z,384.00
2018-11-27T10:33:20.497Z,384.00
2018-11-27T10:34:20.521Z,380.00
2018-11-27T10:35:20.547Z,372.00
2018-11-27T10:36:20.572Z,364.00
2018-11-27T10:37:20.600Z,364.00
2018-11-27T10:38:20.629Z,364.00
2018-11-27T10:39:20.654Z,360.00
2018-11-27T10:40:20.682Z,356.00
2018-11-27T10:41:20.707Z,348.00
2018-11-27T10:42:20.733Z,340.00
2018-11-27T10:43:20.762Z,336.00
2018-11-27T10:44:20.788Z,328.00
2018-11-27T10:45:20.814Z,332.00
2018-11-27T10:46:20.840Z,328.00
2018-11-27T10:47:20.867Z,328.00
2018-11-27T10:48:20.893Z,320.00
2018-11-27T10:49:20.920Z,320.00
2018-11-27T10:50:20.947Z,316.00
2018-11-27T10:51:20.973Z,312.00
2018-11-27T10:52:21.001Z,304.00
2018-11-27T10:53:21.031Z,300.00
2018-11-27T10:54:21.054Z,296.00
2018-11-27T10:55:21.084Z,300.00
2018-11-27T10:56:21.105Z,304.00
2018-11-27T10:57:21.133Z,308.00
2018-11-27T10:58:21.160Z,312.00
2018-11-27T10:59:21.190Z,312.00
2018-11-27T11:00:21.211Z,320.00
2018-11-27T11:01:21.273Z,324.00
2018-11-27T11:02:21.266Z,332.00
2018-11-27T11:03:21.293Z,328.00
2018-11-27T11:04:21.320Z,332.00
2018-11-27T11:05:21.346Z,336.00
2018-11-27T11:06:21.373Z,336.00
2018-11-27T11:07:21.401Z,340.00
2018-11-27T11:08:21.426Z,344.00
2018-11-27T11:09:21.453Z,340.00
2018-11-27T11:10:21.479Z,332.00
2018-11-27T11:11:21.506Z,328.00
2018-11-27T11:12:21.532Z,320.00
2018-11-27T11:13:21.560Z,320.00
2018-11-27T11:14:21.590Z,320.00
2018-11-27T11:15:21.612Z,320.00
2018-11-27T11:16:21.639Z,316.00
2018-11-27T11:17:21.665Z,316.00
2018-11-27T11:18:21.693Z,308.00
2018-11-27T11:19:21.719Z,304.00
2018-11-27T11:20:21.745Z,304.00
2018-11-27T11:21:21.771Z,304.00
2018-11-27T11:22:21.798Z,304.00
2018-11-27T11:23:21.826Z,304.00
2018-11-27T11:24:21.850Z,308.00
2018-11-27T11:25:21.887Z,308.00
2018-11-27T11:26:21.905Z,308.00
2018-11-27T11:27:21.931Z,308.00
2018-11-27T11:28:21.957Z,308.00
2018-11-27T11:29:21.984Z,304.00
2018-11-27T11:30:22.012Z,304.00
2018-11-27T11:31:22.039Z,304.00
2018-11-27T11:32:22.064Z,304.00
2018-11-27T11:33:22.091Z,304.00
2018-11-27T11:34:22.118Z,300.00
2018-11-27T11:35:22.147Z,300.00
2018-11-27T11:36:22.172Z,296.00
2018-11-27T11:37:22.198Z,300.00
2018-11-27T11:38:22.226Z,296.00
2018-11-27T11:39:22.251Z,296.00
2018-11-27T11:40:22.277Z,296.00
2018-11-27T11:41:22.304Z,292.00
2018-11-27T11:42:22.333Z,292.00
2018-11-27T11:43:22.359Z,288.00
2018-11-27T11:44:22.384Z,288.00
2018-11-27T11:45:22.418Z,288.00
2018-11-27T11:46:22.436Z,284.00
2018-11-27T11:47:22.465Z,280.00
2018-11-27T11:48:22.490Z,280.00
2018-11-27T11:49:22.517Z,276.00
2018-11-27T11:50:22.544Z,272.00
2018-11-27T11:51:22.572Z,268.00
2018-11-27T11:52:22.596Z,260.00
2018-11-27T11:53:22.623Z,256.00
2018-11-27T11:54:22.651Z,248.00
2018-11-27T11:55:22.677Z,244.00
2018-11-27T11:56:22.712Z,244.00
2018-11-27T11:57:22.728Z,240.00
2018-11-27T11:58:22.756Z,244.00
2018-11-27T11:59:22.783Z,244.00
2018-11-27T12:00:22.810Z,240.00
2018-11-27T12:01:22.840Z,240.00
2018-11-27T12:02:22.864Z,236.00
2018-11-27T12:03:22.890Z,236.00
2018-11-27T12:04:22.916Z,240.00
2018-11-27T12:05:25.171Z,240.00
2018-11-27T12:06:22.969Z,240.00
2018-11-27T12:07:22.996Z,240.00
2018-11-27T12:08:23.021Z,240.00
2018-11-27T12:09:23.049Z,240.00
2018-11-27T12:10:23.076Z,240.00
2018-11-27T12:11:23.101Z,244.00
2018-11-27T12:12:23.130Z,248.00
2018-11-27T12:13:23.154Z,252.00
2018-11-27T12:14:23.181Z,256.00
2018-11-27T12:15:23.208Z,256.00
2018-11-27T12:16:23.234Z,260.00
2018-11-27T12:17:23.265Z,260.00
2018-11-27T12:18:23.288Z,252.00
2018-11-27T12:19:23.315Z,252.00
2018-11-27T12:20:23.342Z,244.00
2018-11-27T12:21:23.368Z,240.00
2018-11-27T12:22:23.396Z,240.00
2018-11-27T12:23:23.422Z,236.00
2018-11-27T12:24:23.449Z,240.00
2018-11-27T12:25:24.356Z,240.00
2018-11-27T12:26:23.502Z,240.00
2018-11-27T12:27:23.529Z,232.00
2018-11-27T12:28:23.556Z,232.00
2018-11-27T12:29:23.604Z,228.00
2018-11-27T12:30:23.611Z,224.00
2018-11-27T12:31:23.635Z,224.00
2018-11-27T12:32:23.659Z,216.00
2018-11-27T12:33:23.689Z,216.00
2018-11-27T12:34:23.714Z,212.00
2018-11-27T12:35:23.739Z,208.00
2018-11-27T12:36:23.768Z,208.00
2018-11-27T12:37:23.793Z,204.00
2018-11-27T12:38:23.820Z,204.00
2018-11-27T12:39:23.847Z,200.00
2018-11-27T12:40:23.874Z,204.00
2018-11-27T12:41:23.899Z,200.00
2018-11-27T12:42:23.926Z,200.00
2018-11-27T12:43:23.961Z,196.00
2018-11-27T12:44:23.979Z,192.00
2018-11-27T12:45:24.007Z,192.00
2018-11-27T12:46:24.032Z,188.00
2018-11-27T12:47:24.060Z,184.00
2018-11-27T12:48:24.089Z,184.00
2018-11-27T12:49:24.113Z,180.00
2018-11-27T12:50:24.139Z,180.00
2018-11-27T12:51:24.175Z,176.00
2018-11-27T12:52:24.195Z,172.00
2018-11-27T12:53:24.220Z,168.00
2018-11-27T12:54:24.246Z,164.00